Smithville, Texas
Current Conditions -  °F | °C
As of 6:10 PM on Thursday 27 Nov 2014 (Local Time) from K3T5 Reporting Station
Clear Clear  
Wind Chill: 53°   Ceiling: Unl
Heat Index: 53°   Visibility: 10mi
Dew Point: 42°   Wind: 0mph
Humidity: 67%   Direction: NA
Pressure: 30.39"   Gusts: NA
Location:  30.01°N, 97.16°W
Report Text: K3T5 280010Z AUTO 00000KT 10SM CLR 11/05 A3039 RMK AO2 T01140054
Loading
Personal Weather Stations






























Interactive Weather Map New forecast layout! Learn more

10-Day Weather Forecast

Advertisements
Track Severe Weather on mobile